Portuguese Bend, California
Current Conditions -  °F | °C
As of 7:50 PM on Sunday 23 Nov 2014 (Local Time) from KTOA Reporting Station
Scattered Clouds Scattered Clouds  
Wind Chill: 64°   Ceiling: Unl
Heat Index: 64°   Visibility: 20mi
Dew Point: 19°   Wind: 7mph
Humidity: 18%   Direction: 220°SW
Pressure: 30.13"   Gusts: NA
Location:  33.7772°N, 118.368°W
Report Text: KTOA 240350Z 22006KT 20SM SCT200 18/M07 A3013 RMK LAST
Loading
Personal Weather Stations






























Interactive Weather Map New forecast layout! Learn more

10-Day Weather Forecast

Advertisements
Track Severe Weather on mobile